Time;durP1;ratioP1;P1;durP2;ratioP2;P2;SDS_P1;SDS_P2;PMS_P1;PMS_P2;Temp;Humidity;BMP_temperature;BMP_pressure;BME280_temperature;BME280_humidity;BME280_pressure;Samples;Min_cycle;Max_cycle;Signal;HPM_P1;HPM_P2
2023/05/28 00:01:59;;;;;;;11.63;4.25;;;;;;;15.53;80.35;100593.34;5547295;32;34167;-69
2023/05/28 00:05:06;;;;;;;9.60;4.07;;;;;;;15.51;77.97;100588.19;5547229;32;34635;-68
2023/05/28 00:08:14;;;;;;;9.38;3.95;;;;;;;15.52;72.79;100587.19;5547174;32;33825;-69
2023/05/28 00:11:24;;;;;;;13.38;4.35;;;;;;;15.47;69.74;100589.56;5547224;32;33783;-69
2023/05/28 00:14:30;;;;;;;12.00;4.43;;;;;;;15.43;70.25;100588.31;5546402;32;33905;-69
2023/05/28 00:17:39;;;;;;;14.35;4.28;;;;;;;15.40;67.50;100586.00;5547091;32;33854;-69
2023/05/28 00:20:45;;;;;;;13.02;4.30;;;;;;;15.51;66.10;100584.69;5546539;32;33943;-68
2023/05/28 00:23:50;;;;;;;10.98;4.65;;;;;;;15.61;65.59;100588.69;5546827;32;34268;-69
2023/05/28 00:26:56;;;;;;;9.32;4.37;;;;;;;15.57;66.10;100583.91;5532978;32;34748;-68
2023/05/28 00:30:02;;;;;;;8.93;4.50;;;;;;;15.57;66.09;100587.41;5530165;32;34547;-68
2023/05/28 00:33:08;;;;;;;11.85;4.28;;;;;;;15.53;64.88;100574.62;5529884;32;34848;-68
2023/05/28 00:36:16;;;;;;;12.63;4.15;;;;;;;15.53;64.50;100580.81;5529861;32;34086;-68
2023/05/28 00:39:21;;;;;;;9.20;4.57;;;;;;;15.43;65.83;100574.12;5528902;32;33904;-69
2023/05/28 00:42:30;;;;;;;10.48;4.18;;;;;;;15.36;67.62;100578.56;5529852;32;34060;-68
2023/05/28 00:45:39;;;;;;;10.60;4.20;;;;;;;15.32;68.10;100566.63;5529867;32;34648;-69
2023/05/28 00:48:50;;;;;;;9.15;4.22;;;;;;;15.16;70.40;100557.84;5529865;32;34901;-69
2023/05/28 00:51:58;;;;;;;11.93;5.00;;;;;;;15.02;72.28;100569.47;5529817;32;33907;-68
2023/05/28 00:55:14;;;;;;;14.52;5.28;;;;;;;14.98;72.20;100564.69;5529591;32;34563;-68
2023/05/28 00:58:22;;;;;;;13.85;4.22;;;;;;;15.02;71.10;100563.28;5529723;32;33984;-69
2023/05/28 01:01:27;;;;;;;10.05;4.70;;;;;;;14.92;71.64;100550.25;5529649;32;33456;-69
2023/05/28 01:04:33;;;;;;;12.02;4.68;;;;;;;14.93;70.08;100554.56;5529674;32;34139;-69
2023/05/28 01:07:42;;;;;;;12.47;4.50;;;;;;;14.90;69.23;100552.31;5529736;32;33998;-69
2023/05/28 01:10:48;;;;;;;10.88;4.05;;;;;;;14.90;68.74;100548.81;5528727;32;34649;-68
2023/05/28 01:13:57;;;;;;;14.85;4.45;;;;;;;14.92;67.18;100550.25;5529579;32;35026;-69
2023/05/28 01:17:05;;;;;;;9.40;3.95;;;;;;;14.86;67.30;100545.69;5529448;32;34112;-69
2023/05/28 01:20:16;;;;;;;9.95;4.37;;;;;;;14.76;68.01;100545.97;5528549;32;34507;-69
2023/05/28 01:23:26;;;;;;;11.82;4.60;;;;;;;14.83;67.20;100540.72;5529471;32;33861;-69
2023/05/28 01:26:35;;;;;;;13.30;5.00;;;;;;;14.82;67.10;100543.56;5529440;32;34142;-69
2023/05/28 01:29:42;;;;;;;9.25;4.00;;;;;;;14.69;67.88;100544.28;5529399;32;34610;-68
2023/05/28 01:32:50;;;;;;;9.50;4.07;;;;;;;14.77;68.16;100544.97;5529625;32;34312;-68
2023/05/28 01:35:58;;;;;;;10.40;4.40;;;;;;;14.76;68.69;100543.31;5529332;32;34932;-68
2023/05/28 01:39:04;;;;;;;11.10;4.60;;;;;;;14.63;68.59;100537.03;5528258;32;35444;-68
2023/05/28 01:42:09;;;;;;;8.63;4.15;;;;;;;14.65;69.45;100543.84;5529321;32;35244;-68
2023/05/28 01:45:15;;;;;;;8.77;3.97;;;;;;;14.63;69.04;100537.84;5529259;32;34775;-68
2023/05/28 01:48:21;;;;;;;11.52;4.35;;;;;;;14.70;68.05;100533.41;5529350;32;33995;-68
2023/05/28 01:51:26;;;;;;;9.82;4.22;;;;;;;14.68;68.04;100539.94;5522895;32;34251;-69
2023/05/28 01:54:30;;;;;;;9.95;4.55;;;;;;;14.56;68.04;100536.97;5529054;32;34951;-69
2023/05/28 01:57:36;;;;;;;7.90;3.97;;;;;;;14.51;67.93;100536.72;5529180;32;34293;-69
2023/05/28 02:00:58;;;;;;;10.23;4.15;;;;;;;14.49;68.41;100528.06;5529034;32;34814;-69
2023/05/28 02:04:07;;;;;;;9.40;3.80;;;;;;;14.44;68.51;100524.28;5529041;32;34065;-68
2023/05/28 02:07:16;;;;;;;8.88;3.90;;;;;;;14.49;68.96;100521.87;5529076;32;34852;-68
2023/05/28 02:10:27;;;;;;;14.43;4.05;;;;;;;14.47;68.70;100527.44;5522704;32;34053;-68
2023/05/28 02:13:34;;;;;;;8.93;4.45;;;;;;;14.45;69.37;100524.13;5528997;32;34111;-68
2023/05/28 02:16:49;;;;;;;8.90;3.85;;;;;;;14.42;70.13;100529.84;5528962;32;34859;-68
2023/05/28 02:19:56;;;;;;;9.93;4.03;;;;;;;14.45;70.12;100520.62;5528783;32;34271;-68
2023/05/28 02:23:06;;;;;;;12.55;4.37;;;;;;;14.38;70.67;100515.19;5528956;32;34200;-68
2023/05/28 02:26:11;;;;;;;9.70;3.78;;;;;;;14.39;70.87;100524.03;5528957;32;34533;-69
2023/05/28 02:29:19;;;;;;;8.15;4.00;;;;;;;14.28;71.13;100528.00;5515689;32;34116;-68
2023/05/28 02:32:27;;;;;;;9.95;4.03;;;;;;;14.25;71.87;100525.69;5528932;32;32503;-69
2023/05/28 02:35:37;;;;;;;9.88;4.00;;;;;;;14.17;73.02;100521.31;5528849;32;34986;-69
2023/05/28 02:38:46;;;;;;;10.30;4.18;;;;;;;14.14;73.30;100526.19;5528711;32;34043;-69
2023/05/28 02:41:53;;;;;;;8.73;4.25;;;;;;;14.14;74.73;100528.84;5528660;32;35083;-68
2023/05/28 02:44:58;;;;;;;8.13;4.28;;;;;;;14.14;76.08;100524.34;5527796;32;34075;-69
2023/05/28 02:48:06;;;;;;;11.70;3.92;;;;;;;14.07;76.27;100520.78;5529026;32;34020;-68
2023/05/28 02:51:14;;;;;;;8.05;3.45;;;;;;;14.06;76.86;100524.47;5528039;32;34333;-68
2023/05/28 02:54:21;;;;;;;10.40;3.92;;;;;;;14.12;75.85;100526.38;5528624;32;34625;-69
2023/05/28 02:57:27;;;;;;;12.05;3.47;;;;;;;14.03;75.98;100524.84;5528726;32;33961;-68
2023/05/28 03:00:33;;;;;;;7.70;3.95;;;;;;;14.12;74.74;100522.88;5528519;32;34045;-68
2023/05/28 03:03:37;;;;;;;7.15;3.50;;;;;;;14.11;75.54;100524.72;5528562;32;34135;-68
2023/05/28 03:06:43;;;;;;;6.87;3.50;;;;;;;14.17;74.59;100531.16;5528560;32;34162;-69
2023/05/28 03:09:48;;;;;;;11.02;4.32;;;;;;;14.12;74.04;100520.22;5528622;32;34074;-68
2023/05/28 03:12:53;;;;;;;15.23;3.70;;;;;;;14.10;74.37;100525.72;5528583;32;34078;-68
2023/05/28 03:15:58;;;;;;;9.25;3.40;;;;;;;14.06;74.58;100520.97;5528530;32;35020;-68
2023/05/28 03:19:04;;;;;;;10.43;4.07;;;;;;;14.12;74.56;100525.56;5528539;32;33829;-68
2023/05/28 03:22:09;;;;;;;7.65;3.47;;;;;;;14.12;74.65;100526.38;5528414;32;34773;-69
2023/05/28 03:25:15;;;;;;;9.48;3.65;;;;;;;14.12;75.03;100523.72;5528467;32;33862;-69
2023/05/28 03:28:20;;;;;;;10.00;3.80;;;;;;;14.07;75.03;100522.63;5528391;32;34093;-68
2023/05/28 03:31:31;;;;;;;9.98;3.75;;;;;;;14.17;74.79;100523.16;5528717;32;33761;-68
2023/05/28 03:34:36;;;;;;;13.65;4.18;;;;;;;14.23;74.26;100515.22;5528389;32;34739;-68
2023/05/28 03:37:43;;;;;;;11.65;3.47;;;;;;;14.24;74.80;100516.03;5528347;32;34067;-69
2023/05/28 03:40:47;;;;;;;8.02;3.72;;;;;;;14.25;74.73;100523.03;5528316;32;33872;-68
2023/05/28 03:43:53;;;;;;;8.43;4.20;;;;;;;14.31;74.19;100520.44;5528249;32;34808;-69
2023/05/28 03:46:57;;;;;;;9.25;3.90;;;;;;;14.26;74.81;100524.69;5528164;32;34205;-69
2023/05/28 03:50:04;;;;;;;8.73;3.65;;;;;;;14.26;75.35;100524.69;5528081;32;34084;-69
2023/05/28 03:53:08;;;;;;;8.80;3.53;;;;;;;14.32;75.21;100521.28;5528308;32;34707;-69
2023/05/28 03:56:13;;;;;;;11.00;3.53;;;;;;;14.38;75.04;100512.53;5527322;32;34523;-68
2023/05/28 03:59:17;;;;;;;8.82;3.65;;;;;;;14.41;75.13;100511.34;5528009;32;34151;-69
2023/05/28 04:02:23;;;;;;;10.20;4.00;;;;;;;14.43;75.59;100518.13;5526708;32;34597;-69
2023/05/28 04:05:27;;;;;;;10.45;3.62;;;;;;;14.45;75.36;100523.28;5527828;32;34067;-69
2023/05/28 04:08:32;;;;;;;9.65;3.60;;;;;;;14.50;76.32;100519.03;5527955;32;34293;-68
2023/05/28 04:11:38;;;;;;;10.48;3.70;;;;;;;14.52;75.21;100519.69;5527758;32;34157;-69
2023/05/28 04:14:47;;;;;;;10.63;4.35;;;;;;;14.59;74.86;100523.22;5527862;32;34039;-69
2023/05/28 04:17:52;;;;;;;9.43;4.07;;;;;;;14.70;74.11;100524.56;5527728;32;33759;-69
2023/05/28 04:20:56;;;;;;;8.90;4.28;;;;;;;14.72;74.03;100523.34;5527479;32;34030;-68
2023/05/28 04:24:01;;;;;;;9.55;4.22;;;;;;;14.74;74.29;100528.50;5527587;32;35562;-68
2023/05/28 04:27:07;;;;;;;14.55;4.35;;;;;;;14.76;74.29;100521.94;5527613;32;33927;-68
2023/05/28 04:30:12;;;;;;;8.88;4.30;;;;;;;14.84;74.84;100523.69;5527774;32;34018;-68
2023/05/28 04:33:20;;;;;;;10.13;4.00;;;;;;;14.80;74.98;100522.41;5526661;32;34745;-68
2023/05/28 04:36:29;;;;;;;12.07;3.78;;;;;;;14.95;74.57;100519.66;5527415;32;34375;-68
2023/05/28 04:39:35;;;;;;;9.10;3.50;;;;;;;14.93;74.39;100530.53;5527429;32;33705;-68
2023/05/28 04:42:42;;;;;;;6.53;3.50;;;;;;;14.91;74.84;100531.75;5527207;32;34575;-69
2023/05/28 04:45:53;;;;;;;9.82;3.70;;;;;;;15.02;76.06;100533.91;5527276;32;34008;-68
2023/05/28 04:49:02;;;;;;;11.75;3.97;;;;;;;15.09;75.25;100534.78;5527159;32;34105;-69
2023/05/28 04:52:08;;;;;;;11.73;3.42;;;;;;;15.07;74.40;100531.47;5526278;32;34751;-68
2023/05/28 04:55:16;;;;;;;11.05;3.78;;;;;;;15.13;73.61;100536.88;5526831;32;35054;-68
2023/05/28 04:58:22;;;;;;;14.05;3.78;;;;;;;15.20;72.85;100536.94;5526217;32;34665;-68
2023/05/28 05:01:32;;;;;;;12.65;3.33;;;;;;;15.32;72.36;100540.72;5526586;32;34774;-68
2023/05/28 05:04:38;;;;;;;8.23;3.35;;;;;;;15.32;71.92;100539.88;5526125;32;34338;-68
2023/05/28 05:07:43;;;;;;;9.93;3.80;;;;;;;15.43;71.64;100531.34;5536785;32;34154;-68
2023/05/28 05:10:49;;;;;;;12.32;3.47;;;;;;;15.55;71.18;100532.47;5545173;32;34070;-68
2023/05/28 05:13:53;;;;;;;8.65;3.35;;;;;;;15.72;70.52;100533.00;5547525;32;33955;-68
2023/05/28 05:16:59;;;;;;;9.27;3.50;;;;;;;15.73;70.68;100540.81;5548934;32;34094;-68
2023/05/28 05:20:06;;;;;;;8.07;3.30;;;;;;;15.77;70.61;100533.22;5548867;32;33991;-69
2023/05/28 05:23:11;;;;;;;9.30;3.28;;;;;;;15.82;68.96;100539.63;5548731;32;34742;-68
2023/05/28 05:26:17;;;;;;;9.77;3.20;;;;;;;16.03;69.02;100530.66;5548946;32;34171;-69
2023/05/28 05:29:21;;;;;;;7.22;3.33;;;;;;;16.14;68.75;100538.13;5548743;32;34170;-69
2023/05/28 05:32:25;;;;;;;9.52;3.78;;;;;;;16.15;67.16;100528.25;5548629;32;34836;-71
2023/05/28 05:35:30;;;;;;;11.32;3.60;;;;;;;16.19;66.44;100533.00;5548746;32;34018;-69
2023/05/28 05:38:37;;;;;;;6.18;2.80;;;;;;;15.96;67.18;100536.00;5548598;32;34846;-69
2023/05/28 05:41:43;;;;;;;13.75;3.28;;;;;;;16.02;66.61;100526.34;5548387;32;33964;-69
2023/05/28 05:44:48;;;;;;;6.57;3.03;;;;;;;16.07;67.26;100530.06;5548629;32;33870;-68
2023/05/28 05:47:52;;;;;;;10.65;3.22;;;;;;;16.38;68.13;100523.38;5547763;32;34194;-69
2023/05/28 05:51:02;;;;;;;9.88;3.20;;;;;;;16.46;65.56;100523.19;5548636;32;34117;-68
2023/05/28 05:54:07;;;;;;;6.93;3.53;;;;;;;16.45;65.58;100519.72;5548406;32;34061;-69
2023/05/28 05:57:17;;;;;;;8.43;2.90;;;;;;;16.45;66.14;100519.72;5548421;32;34825;-68
2023/05/28 06:00:23;;;;;;;11.50;3.42;;;;;;;16.65;65.72;100522.47;5548320;32;34194;-68
2023/05/28 06:03:30;;;;;;;14.38;3.35;;;;;;;16.73;66.87;100518.75;5548489;32;34792;-68
2023/05/28 06:06:38;;;;;;;7.40;2.97;;;;;;;16.88;66.37;100532.78;5547468;32;34883;-68
2023/05/28 06:09:48;;;;;;;9.98;3.15;;;;;;;16.84;65.20;100527.03;5547755;32;34146;-68
2023/05/28 06:13:00;;;;;;;10.60;3.65;;;;;;;16.75;64.75;100536.25;5548339;32;34189;-68
2023/05/28 06:16:07;;;;;;;9.70;3.55;;;;;;;17.01;64.80;100531.94;5545760;32;33872;-68
2023/05/28 06:19:12;;;;;;;8.00;3.30;;;;;;;17.06;63.91;100537.53;5544232;32;34112;-68
2023/05/28 06:22:20;;;;;;;8.90;3.70;;;;;;;17.16;65.15;100533.41;5539151;32;34117;-68
2023/05/28 06:25:28;;;;;;;10.88;3.33;;;;;;;17.26;64.07;100531.13;5539911;32;32894;-69
2023/05/28 06:28:34;;;;;;;7.07;3.10;;;;;;;17.46;63.66;100535.66;5528857;32;34026;-68
2023/05/28 06:31:41;;;;;;;8.98;2.85;;;;;;;17.69;62.21;100539.56;5527977;32;34088;-68
2023/05/28 06:34:50;;;;;;;8.23;3.17;;;;;;;17.47;64.53;100535.44;5528377;32;34236;-68
2023/05/28 06:37:57;;;;;;;11.90;3.53;;;;;;;17.51;63.14;100547.41;5529220;32;34703;-69
2023/05/28 06:41:04;;;;;;;9.52;3.40;;;;;;;17.59;63.61;100541.84;5529049;32;34698;-69
2023/05/28 06:44:10;;;;;;;8.07;3.40;;;;;;;17.79;63.52;100553.34;5528415;32;33989;-69
2023/05/28 06:47:17;;;;;;;11.20;3.70;;;;;;;17.89;63.77;100549.41;5528582;32;34169;-69
2023/05/28 06:50:22;;;;;;;11.60;3.03;;;;;;;18.01;61.29;100551.22;5528596;32;34287;-68
2023/05/28 06:53:26;;;;;;;6.93;3.00;;;;;;;18.11;61.56;100554.28;5528545;32;34171;-68
2023/05/28 06:56:31;;;;;;;8.73;3.12;;;;;;;18.53;61.65;100549.34;5528431;32;34617;-67
2023/05/28 06:59:37;;;;;;;9.32;3.30;;;;;;;18.47;60.16;100547.50;5528841;32;34238;-66
2023/05/28 07:02:42;;;;;;;10.30;3.25;;;;;;;18.46;59.17;100544.00;5528450;32;34817;-67
2023/05/28 07:05:47;;;;;;;7.85;3.37;;;;;;;18.76;59.14;100543.44;5528184;32;34354;-67
2023/05/28 07:08:52;;;;;;;10.05;3.30;;;;;;;18.65;58.79;100535.03;5528543;32;34081;-68
2023/05/28 07:11:57;;;;;;;11.00;3.45;;;;;;;18.69;58.42;100531.94;5528451;32;34079;-67
2023/05/28 07:15:06;;;;;;;10.40;3.17;;;;;;;18.78;59.06;100539.50;5528484;32;34074;-68
2023/05/28 07:18:11;;;;;;;7.72;3.10;;;;;;;18.92;58.67;100538.37;5541788;32;34727;-67
2023/05/28 07:21:16;;;;;;;10.40;3.37;;;;;;;19.40;56.53;100540.44;5537531;32;34206;-69
2023/05/28 07:24:21;;;;;;;7.95;3.67;;;;;;;19.61;55.59;100536.53;5540166;32;34123;-68
2023/05/28 07:27:27;;;;;;;5.90;3.00;;;;;;;19.53;54.92;100543.88;5533326;32;34664;-68
2023/05/28 07:30:35;;;;;;;6.95;3.05;;;;;;;19.75;55.49;100544.25;5528672;32;34159;-72
2023/05/28 07:33:42;;;;;;;7.40;3.10;;;;;;;19.70;56.00;100544.12;5527088;32;33895;-68
2023/05/28 07:36:50;;;;;;;7.25;2.90;;;;;;;20.01;53.27;100545.00;5527952;32;33898;-68
2023/05/28 07:39:57;;;;;;;8.00;2.90;;;;;;;20.09;53.93;100536.63;5528157;32;34053;-69
2023/05/28 07:43:05;;;;;;;8.33;3.30;;;;;;;20.67;52.22;100534.22;5528054;32;34000;-71
2023/05/28 07:46:13;;;;;;;7.62;2.83;;;;;;;21.49;50.23;100532.47;5527767;32;34455;-69
2023/05/28 07:49:21;;;;;;;12.25;3.17;;;;;;;22.68;48.36;100530.88;5528101;32;35262;-69
2023/05/28 07:52:29;;;;;;;9.82;3.20;;;;;;;22.48;47.69;100531.31;5527671;32;34862;-68
2023/05/28 07:55:37;;;;;;;9.38;3.30;;;;;;;22.79;46.28;100524.63;5527632;32;34780;-69
2023/05/28 07:58:45;;;;;;;8.80;3.28;;;;;;;22.75;47.80;100526.16;5529332;32;34687;-69
2023/05/28 08:01:51;;;;;;;10.20;3.40;;;;;;;23.47;45.37;100529.81;5527705;32;34121;-68
2023/05/28 08:04:59;;;;;;;6.90;3.08;;;;;;;22.57;47.90;100529.03;5534941;32;34331;-68
2023/05/28 08:08:06;;;;;;;8.00;2.92;;;;;;;23.18;46.52;100525.53;5544707;32;33730;-69
2023/05/28 08:11:14;;;;;;;10.00;3.33;;;;;;;23.21;45.66;100523.16;5547169;32;33824;-68
2023/05/28 08:14:21;;;;;;;8.50;3.40;;;;;;;23.82;45.16;100532.16;5547100;32;35125;-68
2023/05/28 08:17:31;;;;;;;7.15;2.87;;;;;;;24.26;45.02;100519.44;5547055;32;34104;-69
2023/05/28 08:20:36;;;;;;;8.68;3.00;;;;;;;25.61;42.43;100531.00;5547143;32;33821;-70
2023/05/28 08:23:41;;;;;;;10.77;3.33;;;;;;;25.49;41.45;100526.53;5539895;32;34887;-69
2023/05/28 08:26:46;;;;;;;8.13;3.00;;;;;;;23.83;45.98;100518.37;5544488;32;34116;-69
2023/05/28 08:29:51;;;;;;;7.00;2.97;;;;;;;24.45;44.67;100517.22;5545984;32;34113;-70
2023/05/28 08:32:56;;;;;;;9.85;3.17;;;;;;;24.82;43.21;100509.16;5545961;32;33896;-69
2023/05/28 08:36:01;;;;;;;6.97;2.90;;;;;;;25.34;42.51;100512.84;5546713;32;34041;-69
2023/05/28 08:39:07;;;;;;;10.02;3.00;;;;;;;25.76;41.32;100506.59;5546944;32;33978;-69
2023/05/28 08:42:13;;;;;;;10.88;3.30;;;;;;;24.65;43.43;100507.38;5537971;32;34205;-70
2023/05/28 08:45:18;;;;;;;8.10;3.00;;;;;;;24.84;42.97;100507.00;5529552;32;33823;-73
2023/05/28 08:48:24;;;;;;;4.50;2.60;;;;;;;26.45;40.16;100507.13;5546323;32;34834;-69
2023/05/28 08:51:33;;;;;;;9.27;3.53;;;;;;;24.78;42.76;100494.50;5549013;32;34062;-69
2023/05/28 08:54:38;;;;;;;;;;;;;;;26.25;41.22;100498.94;5548569;32;34040;-70
2023/05/28 08:57:48;;;;;;;7.68;2.97;;;;;;;25.12;42.06;100497.78;5548799;32;35006;-69
2023/05/28 09:00:52;;;;;;;7.55;2.80;;;;;;;26.24;40.26;100498.09;5548787;32;34855;-69
2023/05/28 09:03:57;;;;;;;7.93;3.20;;;;;;;25.48;41.39;100492.31;5541595;32;34114;-71
2023/05/28 09:07:03;;;;;;;8.55;3.47;;;;;;;26.61;40.00;100483.50;5541610;32;33854;-69
2023/05/28 09:10:11;;;;;;;8.98;3.28;;;;;;;27.11;38.95;100497.13;5548899;32;33978;-70
2023/05/28 09:13:20;;;;;;;7.97;3.37;;;;;;;27.53;37.93;100490.56;5548805;32;33920;-69
2023/05/28 09:16:24;;;;;;;;;;;;;;;26.87;38.69;100487.09;5548989;32;34404;-70
2023/05/28 09:19:29;;;;;;;7.72;3.22;;;;;;;28.69;36.80;100479.03;5548062;32;34354;-69
2023/05/28 09:22:34;;;;;;;6.03;2.72;;;;;;;28.95;35.98;100477.75;5530678;32;33577;-70
2023/05/28 09:25:40;;;;;;;7.32;3.17;;;;;;;27.86;37.66;100480.87;5529269;32;33951;-70
2023/05/28 09:28:45;;;;;;;4.50;2.60;;;;;;;28.05;37.39;100477.25;5527723;32;35560;-70
2023/05/28 09:31:56;;;;;;;8.07;3.10;;;;;;;29.69;34.21;100476.47;5529248;32;34321;-69
2023/05/28 09:35:04;;;;;;;7.93;3.03;;;;;;;28.73;35.09;100473.84;5529275;32;34751;-68
2023/05/28 09:38:15;;;;;;;8.52;3.12;;;;;;;30.39;32.28;100467.63;5529182;32;33979;-69
2023/05/28 09:41:27;;;;;;;8.73;3.03;;;;;;;27.67;35.22;100462.44;5529192;32;34777;-69
2023/05/28 09:44:34;;;;;;;6.90;3.40;;;;;;;27.36;36.18;100460.84;5528398;32;34924;-69
2023/05/28 09:47:43;;;;;;;10.70;3.47;;;;;;;27.21;36.72;100455.44;5531370;32;34137;-70
2023/05/28 09:50:50;;;;;;;6.93;2.90;;;;;;;27.93;35.72;100467.78;5547712;32;35192;-69
2023/05/28 09:54:00;;;;;;;11.12;3.28;;;;;;;26.98;36.77;100454.13;5548135;32;34134;-69
2023/05/28 09:57:10;;;;;;;7.40;3.50;;;;;;;28.39;33.96;100454.69;5547860;32;34789;-69
2023/05/28 10:00:22;;;;;;;7.50;3.30;;;;;;;28.93;33.84;100449.94;5548304;32;33904;-68
2023/05/28 10:03:38;;;;;;;9.27;3.25;;;;;;;29.98;31.58;100453.69;5548367;32;33868;-70
2023/05/28 10:06:44;;;;;;;6.65;3.03;;;;;;;28.98;32.86;100461.91;5548413;32;33911;-69
2023/05/28 10:09:50;;;;;;;7.37;3.28;;;;;;;28.89;33.08;100457.06;5548288;32;34236;-69
2023/05/28 10:12:56;;;;;;;6.20;2.90;;;;;;;29.42;32.35;100451.63;5534438;32;35060;-69
2023/05/28 10:16:02;;;;;;;6.25;2.65;;;;;;;28.02;33.75;100436.91;5547952;32;35085;-72
2023/05/28 10:19:06;;;;;;;5.28;2.90;;;;;;;29.94;31.37;100438.97;5548094;32;34977;-70
2023/05/28 10:22:13;;;;;;;9.55;3.28;;;;;;;29.70;32.25;100437.06;5548016;32;34738;-70
2023/05/28 10:25:17;;;;;;;8.07;2.85;;;;;;;31.52;28.76;100440.75;5547963;32;33823;-70
2023/05/28 10:28:22;;;;;;;4.90;2.65;;;;;;;32.55;27.64;100430.75;5547704;32;34088;-71
2023/05/28 10:31:26;;;;;;;11.05;3.25;;;;;;;33.11;27.17;100424.69;5532164;32;33879;-71
2023/05/28 10:34:32;;;;;;;6.20;3.03;;;;;;;31.81;28.74;100430.25;5532091;32;34118;-72
2023/05/28 10:37:39;;;;;;;10.15;3.08;;;;;;;31.89;28.18;100422.12;5528489;32;33747;-70
2023/05/28 10:40:46;;;;;;;9.23;3.33;;;;;;;31.50;28.48;100422.66;5528793;32;33782;-71
2023/05/28 10:43:52;;;;;;;7.50;3.05;;;;;;;28.99;31.60;100417.09;5543095;32;34959;-71
2023/05/28 10:46:56;;;;;;;10.63;3.33;;;;;;;28.69;32.19;100418.97;5533098;32;34077;-70
2023/05/28 10:50:10;;;;;;;5.57;2.90;;;;;;;31.59;28.93;100419.22;5528572;32;33957;-70
2023/05/28 10:53:21;;;;;;;10.88;2.80;;;;;;;30.64;29.29;100426.19;5529274;32;34752;-70
2023/05/28 10:56:27;;;;;;;8.43;2.92;;;;;;;31.12;29.58;100415.75;5542917;32;34809;-69
2023/05/28 10:59:44;;;;;;;6.12;2.92;;;;;;;31.69;27.57;100421.75;5547687;32;34054;-70
2023/05/28 11:02:53;;;;;;;8.82;3.35;;;;;;;32.32;27.86;100421.72;5547692;32;34513;-69
2023/05/28 11:06:05;;;;;;;8.55;3.15;;;;;;;33.74;25.70;100413.28;5547011;32;33980;-70
2023/05/28 11:09:11;;;;;;;7.35;3.00;;;;;;;29.79;30.16;100404.41;5546454;32;33883;-71
2023/05/28 11:12:15;;;;;;;8.50;3.15;;;;;;;30.72;28.67;100398.09;5537791;32;33936;-70
2023/05/28 11:15:21;;;;;;;4.82;3.08;;;;;;;31.65;28.25;100404.28;5547404;32;34354;-69
2023/05/28 11:18:29;;;;;;;11.40;3.35;;;;;;;31.32;28.13;100401.62;5547588;32;33883;-70
2023/05/28 11:21:33;;;;;;;8.90;3.33;;;;;;;32.61;26.37;100396.56;5539092;32;34133;-70
2023/05/28 11:24:59;;;;;;;9.70;3.45;;;;;;;30.70;28.62;100383.88;5541114;32;34071;-70
2023/05/28 11:28:06;;;;;;;6.35;2.90;;;;;;;31.97;27.41;100392.31;5546862;32;34579;-70
2023/05/28 11:31:13;;;;;;;8.00;3.28;;;;;;;31.56;27.14;100379.53;5547354;32;33952;-69
2023/05/28 11:34:20;;;;;;;10.15;3.40;;;;;;;30.73;28.35;100374.25;5547715;32;33808;-71
2023/05/28 11:37:30;;;;;;;9.98;3.42;;;;;;;29.44;30.10;100378.34;5547418;32;33945;-70
2023/05/28 11:40:36;;;;;;;7.30;3.25;;;;;;;29.50;30.14;100368.16;5547278;32;34917;-70
2023/05/28 11:43:45;;;;;;;7.65;3.42;;;;;;;30.38;29.32;100362.78;5535519;32;34799;-70
2023/05/28 11:46:57;;;;;;;6.12;3.30;;;;;;;29.78;29.93;100359.03;5527396;32;34892;-69
2023/05/28 11:50:15;;;;;;;9.50;3.33;;;;;;;30.84;28.81;100371.00;5527754;32;34035;-70
2023/05/28 11:53:20;;;;;;;10.18;3.45;;;;;;;31.00;28.01;100358.66;5528163;32;33831;-70
2023/05/28 11:56:28;;;;;;;13.23;3.67;;;;;;;32.94;26.64;100353.94;5527062;32;33920;-71
2023/05/28 11:59:36;;;;;;;6.18;3.17;;;;;;;31.98;27.63;100355.53;5526723;32;33900;-71
2023/05/28 12:02:50;;;;;;;6.87;3.17;;;;;;;33.27;26.83;100348.06;5527752;32;34306;-70
2023/05/28 12:05:57;;;;;;;7.90;3.20;;;;;;;30.30;29.53;100338.84;5527598;32;34666;-70
2023/05/28 12:09:05;;;;;;;6.40;3.20;;;;;;;30.57;29.59;100338.13;5527707;32;34179;-70
2023/05/28 12:12:12;;;;;;;9.38;3.60;;;;;;;32.18;27.95;100352.34;5527550;32;33743;-70
2023/05/28 12:15:25;;;;;;;9.23;3.05;;;;;;;32.94;26.89;100342.13;5528063;32;34067;-70
2023/05/28 12:18:31;;;;;;;5.65;3.22;;;;;;;32.04;27.85;100354.28;5535585;32;34309;-72
2023/05/28 12:21:37;;;;;;;8.88;3.25;;;;;;;33.50;26.32;100342.13;5527809;32;35153;-70
2023/05/28 12:24:50;;;;;;;7.50;3.45;;;;;;;33.83;26.00;100347.25;5525972;32;34314;-71
2023/05/28 12:27:58;;;;;;;8.23;3.50;;;;;;;33.00;26.24;100344.41;5526700;32;34178;-70
2023/05/28 12:31:07;;;;;;;6.65;3.17;;;;;;;34.76;24.81;100345.50;5527190;32;34176;-72
2023/05/28 12:34:14;;;;;;;7.45;3.05;;;;;;;36.43;23.01;100339.06;5527138;32;34037;-71
2023/05/28 12:37:23;;;;;;;8.00;3.10;;;;;;;35.76;23.73;100349.56;5526448;32;33854;-71
2023/05/28 12:40:28;;;;;;;7.05;3.30;;;;;;;35.79;23.32;100335.06;5527229;32;34780;-72
2023/05/28 12:43:37;;;;;;;10.88;3.30;;;;;;;32.82;26.01;100337.25;5526239;32;34241;-69
2023/05/28 12:46:45;;;;;;;6.78;3.17;;;;;;;34.17;24.95;100332.66;5527002;32;34741;-71
2023/05/28 12:49:54;;;;;;;10.23;3.10;;;;;;;33.32;25.82;100323.19;5527036;32;34026;-70
2023/05/28 12:53:04;;;;;;;10.57;3.47;;;;;;;33.92;24.56;100321.34;5527611;32;34312;-71
2023/05/28 12:56:11;;;;;;;6.50;3.00;;;;;;;34.89;23.97;100311.44;5546026;32;33586;-74
2023/05/28 12:59:26;;;;;;;6.18;2.83;;;;;;;36.13;22.67;100321.81;5546196;32;34018;-71
2023/05/28 13:02:29;;;;;;;5.85;3.15;;;;;;;35.24;23.61;100309.31;5546231;32;34180;-70
2023/05/28 13:05:36;;;;;;;12.02;3.67;;;;;;;33.55;23.63;100319.19;5545920;32;33851;-71
2023/05/28 13:08:45;;;;;;;7.15;3.37;;;;;;;33.74;23.27;100318.91;5546117;32;34546;-71
2023/05/28 13:11:50;;;;;;;4.97;3.08;;;;;;;33.52;23.31;100309.62;5545936;32;33962;-70
2023/05/28 13:14:56;;;;;;;7.72;3.00;;;;;;;34.85;22.22;100317.94;5545832;32;34244;-69
2023/05/28 13:18:03;;;;;;;7.68;3.20;;;;;;;34.07;22.44;100310.97;5545701;32;34175;-71
2023/05/28 13:21:08;;;;;;;5.43;3.00;;;;;;;34.78;21.55;100317.63;5544849;32;33947;-70
2023/05/28 13:24:15;;;;;;;4.85;2.90;;;;;;;34.42;21.85;100309.78;5546073;32;33874;-70
2023/05/28 13:27:19;;;;;;;4.72;2.80;;;;;;;34.34;21.99;100311.41;5545611;32;34736;-70
2023/05/28 13:30:23;;;;;;;7.55;2.83;;;;;;;34.79;20.71;100309.03;5544985;32;34078;-70
2023/05/28 13:33:29;;;;;;;8.48;2.80;;;;;;;36.37;20.19;100304.50;5552853;32;34122;-70
2023/05/28 13:36:34;;;;;;;4.80;2.97;;;;;;;34.44;21.99;100305.56;5547585;32;35052;-71
2023/05/28 13:39:41;;;;;;;8.32;3.37;;;;;;;34.31;21.57;100290.06;5548536;32;34841;-70
2023/05/28 13:42:49;;;;;;;7.18;3.67;;;;;;;33.58;21.91;100288.28;5547281;32;34317;-73
2023/05/28 13:45:56;;;;;;;;;;;;;;;35.94;20.49;100293.03;5548169;32;34543;-70
2023/05/28 13:49:04;;;;;;;7.43;3.00;;;;;;;34.79;20.46;100281.47;5548425;32;35037;-72
2023/05/28 13:52:11;;;;;;;;;;;;;;;34.61;20.80;100285.41;5548554;32;33919;-69
2023/05/28 13:55:19;;;;;;;6.43;2.87;;;;;;;34.67;20.70;100278.59;5548225;32;34826;-69
2023/05/28 13:58:26;;;;;;;9.80;3.08;;;;;;;34.31;21.38;100272.72;5542309;32;33776;-72
2023/05/28 14:01:33;;;;;;;10.13;3.33;;;;;;;35.02;20.92;100268.22;5529171;32;34292;-70
2023/05/28 14:04:42;;;;;;;10.70;2.78;;;;;;;35.21;20.90;100274.13;5533452;32;34590;-71
2023/05/28 14:07:48;;;;;;;5.47;2.62;;;;;;;37.55;19.31;100267.66;5528690;32;34195;-70
2023/05/28 14:10:54;;;;;;;5.93;3.12;;;;;;;37.40;19.27;100278.28;5528789;32;33872;-70
2023/05/28 14:14:00;;;;;;;5.35;3.10;;;;;;;34.93;21.55;100261.13;5528539;32;34000;-71
2023/05/28 14:17:08;;;;;;;8.00;3.22;;;;;;;30.11;26.08;100253.25;5528298;32;34752;-69
2023/05/28 14:20:13;;;;;;;5.47;2.92;;;;;;;27.05;28.76;100246.91;5528812;32;34725;-72
2023/05/28 14:23:19;;;;;;;9.20;3.50;;;;;;;27.68;28.93;100247.91;5528799;32;33788;-71
2023/05/28 14:26:28;;;;;;;9.45;3.45;;;;;;;27.58;29.12;100239.81;5528752;32;34030;-70
2023/05/28 14:29:35;;;;;;;10.55;3.60;;;;;;;27.15;29.50;100228.59;5528609;32;34197;-70